< < Back
Terminal Aerodrome Forecast


Current Version              Previous Versions:   1  2  3  4  5  6  7  8  9  

Terminal Aerodrome Forecast

837
FTUS42 KTAE 212300
TAFABY
TAF
KABY 212320Z 2200/2224 00000KT P6SM SKC
     FM221400 32007KT P6SM SKC=

Latest METAR

791
SAUS70 KWBC 221000 RRS
MTRABY
METAR KABY 220953Z 00000KT 10SM CLR 18/17 A3001 RMK AO2 SLP160 T01780167
PNO $


USA.gov is the U.S. government's official web portal to all federal, state and local government web resources and services.